Terminal Aerodrome Forecast
Issued by NWS Wilmington, NC

Home | Current Version | Previous Version | Text Only | Print | Product List | Glossary On
Versions: 1 2 3 4 5 6 7 8 9 10 11 12 13 14 15 16 17 18 19
000
FTUS42 KILM 291700
TAFILM
TAF
KILM 291740Z 2918/3018 19007KT P6SM BKN250
     FM300200 22007KT P6SM OVC100
     FM300700 24007KT P6SM -SHRA BKN050
     FM301200 26008KT P6SM VCSH BKN050
     FM301400 33013G20KT P6SM SCT050=

USA.gov is the U.S. government's official web portal to all federal, state and local government web resources and services.